createdAt,value
2022-12-11T00:01:20.779Z,5.09
2022-12-11T00:03:48.855Z,4.97
2022-12-11T00:06:18.366Z,4.85
2022-12-11T00:08:45.860Z,4.86
2022-12-11T00:11:15.463Z,4.91
2022-12-11T00:13:43.504Z,4.96
2022-12-11T00:16:10.916Z,4.42
2022-12-11T00:18:38.669Z,4.67
2022-12-11T00:21:08.392Z,4.90
2022-12-11T00:23:36.254Z,4.73
2022-12-11T00:26:13.732Z,4.76
2022-12-11T00:28:41.471Z,5.10
2022-12-11T00:31:11.851Z,4.94
2022-12-11T00:33:43.055Z,4.61
2022-12-11T00:36:18.892Z,4.37
2022-12-11T00:38:46.817Z,4.69
2022-12-11T00:41:14.721Z,4.70
2022-12-11T00:43:42.152Z,4.72
2022-12-11T00:46:10.290Z,4.66
2022-12-11T00:48:38.039Z,4.65
2022-12-11T00:51:05.963Z,4.88
2022-12-11T00:53:33.390Z,4.78
2022-12-11T00:56:01.019Z,4.53
2022-12-11T00:58:28.501Z,4.82
2022-12-11T01:00:55.854Z,4.45
2022-12-11T01:03:23.531Z,4.02
2022-12-11T01:05:52.964Z,4.27
2022-12-11T01:08:20.597Z,4.18
2022-12-11T01:10:48.393Z,4.00
2022-12-11T01:13:16.071Z,3.68
2022-12-11T01:15:45.185Z,4.12
2022-12-11T01:18:14.296Z,4.06
2022-12-11T01:20:42.648Z,3.92
2022-12-11T01:23:12.984Z,3.57
2022-12-11T01:25:41.047Z,3.84
2022-12-11T01:28:08.770Z,4.20
2022-12-11T01:30:36.543Z,4.32
2022-12-11T01:33:04.282Z,4.30
2022-12-11T01:35:31.721Z,4.41
2022-12-11T01:37:59.367Z,4.37
2022-12-11T01:40:27.029Z,4.38
2022-12-11T01:42:54.354Z,4.25
2022-12-11T01:45:21.573Z,4.39
2022-12-11T01:47:49.912Z,4.45
2022-12-11T01:50:17.428Z,4.45
2022-12-11T01:52:47.442Z,4.41
2022-12-11T01:55:15.799Z,4.26
2022-12-11T01:57:45.127Z,4.38
2022-12-11T02:00:13.089Z,4.22
2022-12-11T02:02:40.794Z,4.16
2022-12-11T02:05:09.391Z,4.16
2022-12-11T02:08:00.990Z,4.07
2022-12-11T02:10:47.097Z,4.31
2022-12-11T02:13:21.675Z,4.45
2022-12-11T02:16:00.634Z,4.45
2022-12-11T02:18:46.373Z,4.54
2022-12-11T02:21:20.984Z,4.16
2022-12-11T02:24:23.746Z,3.91
2022-12-11T02:27:14.726Z,4.28
2022-12-11T02:29:55.112Z,4.32
2022-12-11T02:32:26.201Z,4.29
2022-12-11T02:35:00.331Z,4.32
2022-12-11T02:37:29.942Z,4.50
2022-12-11T02:39:57.580Z,4.40
2022-12-11T02:42:27.636Z,4.36
2022-12-11T02:44:56.942Z,4.12
2022-12-11T02:47:25.711Z,3.89
2022-12-11T02:49:54.565Z,4.31
2022-12-11T02:52:23.391Z,4.17
2022-12-11T02:54:52.654Z,4.14
2022-12-11T02:57:31.691Z,3.95
2022-12-11T02:59:59.475Z,3.97
2022-12-11T03:02:27.047Z,3.85
2022-12-11T03:04:54.422Z,3.99
2022-12-11T03:07:24.999Z,3.62
2022-12-11T03:09:53.120Z,3.68
2022-12-11T03:12:28.051Z,3.80
2022-12-11T03:14:56.610Z,3.59
2022-12-11T03:17:31.168Z,3.64
2022-12-11T03:20:35.624Z,3.48
2022-12-11T03:23:33.820Z,3.84
2022-12-11T03:26:04.602Z,3.87
2022-12-11T03:28:33.611Z,3.94
2022-12-11T03:31:09.208Z,3.81
2022-12-11T03:33:39.139Z,3.73
2022-12-11T03:36:10.833Z,3.39
2022-12-11T03:38:46.506Z,3.65
2022-12-11T03:41:15.255Z,3.70
2022-12-11T03:43:42.918Z,3.56
2022-12-11T03:46:10.949Z,3.66
2022-12-11T03:48:41.699Z,3.92
2022-12-11T03:51:09.847Z,3.83
2022-12-11T03:53:37.913Z,3.82
2022-12-11T03:56:06.822Z,3.34
2022-12-11T03:58:34.180Z,3.41
2022-12-11T04:01:02.027Z,3.20
2022-12-11T04:03:29.653Z,3.15
2022-12-11T04:05:57.569Z,3.34
2022-12-11T04:08:25.019Z,3.47
2022-12-11T04:11:11.687Z,3.07
2022-12-11T04:13:39.888Z,3.13
2022-12-11T04:16:07.731Z,2.87
2022-12-11T04:18:53.504Z,3.01
2022-12-11T04:21:40.113Z,2.83
2022-12-11T04:24:16.750Z,3.20
2022-12-11T04:26:46.093Z,2.91
2022-12-11T04:29:14.463Z,2.98
2022-12-11T04:31:41.930Z,3.14
2022-12-11T04:34:09.728Z,3.25
2022-12-11T04:36:37.765Z,2.91
2022-12-11T04:39:05.957Z,3.07
2022-12-11T04:41:34.248Z,3.23
2022-12-11T04:44:01.816Z,2.84
2022-12-11T04:46:29.260Z,2.69
2022-12-11T04:48:58.047Z,2.80
2022-12-11T04:51:25.908Z,2.51
2022-12-11T04:53:53.435Z,2.86
2022-12-11T04:56:21.503Z,2.55
2022-12-11T04:58:49.570Z,2.68
2022-12-11T05:01:19.877Z,3.15
2022-12-11T05:03:48.033Z,2.92
2022-12-11T05:06:15.803Z,2.63
2022-12-11T05:08:43.858Z,2.77
2022-12-11T05:11:13.388Z,2.55
2022-12-11T05:13:40.801Z,2.50
2022-12-11T05:16:09.810Z,2.58
2022-12-11T05:18:37.662Z,2.71
2022-12-11T05:21:07.700Z,2.92
2022-12-11T05:23:35.091Z,2.79
2022-12-11T05:26:05.223Z,2.54
2022-12-11T05:28:35.692Z,2.73
2022-12-11T05:31:12.158Z,2.36
2022-12-11T05:33:39.566Z,2.71
2022-12-11T05:36:07.875Z,2.40
2022-12-11T05:38:35.476Z,2.42
2022-12-11T05:41:05.002Z,2.15
2022-12-11T05:43:34.474Z,2.37
2022-12-11T05:46:15.295Z,2.15
2022-12-11T05:48:44.131Z,2.30
2022-12-11T05:51:12.523Z,2.54
2022-12-11T05:53:40.888Z,2.62
2022-12-11T05:56:12.470Z,2.65
2022-12-11T05:58:40.793Z,2.33
2022-12-11T06:01:14.181Z,2.46
2022-12-11T06:03:41.820Z,2.45
2022-12-11T06:06:09.261Z,2.56
2022-12-11T06:08:36.624Z,2.54
2022-12-11T06:11:05.056Z,2.41
2022-12-11T06:13:32.654Z,2.63
2022-12-11T06:16:05.036Z,2.39
2022-12-11T06:18:36.439Z,2.29
2022-12-11T06:21:11.624Z,2.41
2022-12-11T06:23:39.210Z,2.40
2022-12-11T06:26:07.104Z,2.26
2022-12-11T06:28:34.523Z,2.55
2022-12-11T06:31:02.284Z,2.73
2022-12-11T06:33:30.185Z,2.24
2022-12-11T06:36:02.094Z,2.32
2022-12-11T06:38:29.719Z,2.23
2022-12-11T06:41:02.568Z,2.41
2022-12-11T06:43:30.771Z,2.18
2022-12-11T06:46:03.820Z,2.24
2022-12-11T06:48:32.049Z,2.32
2022-12-11T06:50:59.418Z,2.30
2022-12-11T06:53:26.762Z,2.08
2022-12-11T06:55:54.381Z,2.21
2022-12-11T06:58:21.796Z,2.28
2022-12-11T07:00:49.154Z,2.60
2022-12-11T07:03:16.778Z,2.40
2022-12-11T07:05:44.071Z,2.47
2022-12-11T07:08:11.497Z,2.53
2022-12-11T07:10:39.140Z,2.21
2022-12-11T07:13:06.440Z,2.30
2022-12-11T07:15:37.678Z,2.58
2022-12-11T07:18:07.930Z,2.29
2022-12-11T07:20:35.657Z,2.42
2022-12-11T07:23:03.016Z,2.54
2022-12-11T07:25:30.591Z,2.64
2022-12-11T07:27:58.122Z,2.51
2022-12-11T07:30:25.439Z,2.39
2022-12-11T07:32:53.095Z,2.65
2022-12-11T07:35:20.517Z,2.45
2022-12-11T07:37:47.844Z,2.16
2022-12-11T07:40:15.520Z,2.54
2022-12-11T07:42:46.168Z,2.65
2022-12-11T07:45:14.040Z,2.58
2022-12-11T07:47:41.889Z,3.05
2022-12-11T07:50:09.556Z,2.90
2022-12-11T07:52:37.051Z,3.06
2022-12-11T07:55:05.164Z,2.86
2022-12-11T07:57:32.505Z,3.04
2022-12-11T07:59:59.874Z,2.78
2022-12-11T08:02:30.243Z,2.73
2022-12-11T08:05:01.659Z,2.79
2022-12-11T08:07:29.007Z,3.03
2022-12-11T08:09:56.305Z,3.33
2022-12-11T08:12:23.887Z,2.82
2022-12-11T08:14:51.474Z,3.14
2022-12-11T08:17:18.779Z,3.09
2022-12-11T08:19:46.342Z,2.87
2022-12-11T08:22:14.525Z,3.14
2022-12-11T08:24:41.819Z,3.30
2022-12-11T08:27:09.402Z,3.14
2022-12-11T08:29:37.264Z,3.15
2022-12-11T08:32:10.531Z,3.13
2022-12-11T08:34:40.323Z,3.11
2022-12-11T08:37:07.622Z,3.45
2022-12-11T08:39:35.039Z,3.26
2022-12-11T08:42:02.651Z,3.08
2022-12-11T08:44:30.100Z,2.82
2022-12-11T08:46:57.704Z,2.85
2022-12-11T08:49:27.616Z,2.84
2022-12-11T08:51:58.551Z,3.02
2022-12-11T08:54:26.156Z,3.55
2022-12-11T08:56:57.822Z,3.43
2022-12-11T08:59:25.885Z,3.46
2022-12-11T09:01:55.066Z,3.47
2022-12-11T09:04:23.123Z,3.61
2022-12-11T09:06:53.347Z,3.26
2022-12-11T09:09:20.708Z,3.53
2022-12-11T09:11:48.191Z,3.65
2022-12-11T09:14:16.307Z,3.57
2022-12-11T09:16:43.681Z,3.60
2022-12-11T09:19:16.442Z,3.39
2022-12-11T09:21:44.382Z,3.19
2022-12-11T09:24:12.663Z,3.64
2022-12-11T09:26:40.056Z,3.20
2022-12-11T09:29:07.788Z,3.27
2022-12-11T09:31:36.334Z,2.96
2022-12-11T09:34:07.145Z,2.90
2022-12-11T09:36:35.112Z,3.04
2022-12-11T09:39:04.749Z,3.36
2022-12-11T09:41:48.270Z,3.13
2022-12-11T09:44:32.917Z,2.99
2022-12-11T09:47:00.787Z,2.78
2022-12-11T09:49:38.291Z,3.22
2022-12-11T09:52:17.204Z,3.51
2022-12-11T09:54:51.239Z,3.41
2022-12-11T09:57:30.417Z,3.20
2022-12-11T10:00:29.344Z,3.26
2022-12-11T10:03:15.744Z,3.35
2022-12-11T10:06:04.909Z,2.98
2022-12-11T10:08:59.628Z,3.21
2022-12-11T10:11:30.966Z,3.08
2022-12-11T10:14:08.951Z,3.02
2022-12-11T10:16:54.650Z,2.90
2022-12-11T10:19:25.893Z,2.87
2022-12-11T10:21:53.965Z,2.99
2022-12-11T10:25:09.065Z,2.84
2022-12-11T10:27:28.521Z,3.26
2022-12-11T10:30:02.830Z,2.90
2022-12-11T10:32:40.547Z,3.15
2022-12-11T10:35:12.095Z,2.97
2022-12-11T10:37:39.936Z,2.97
2022-12-11T10:40:08.228Z,2.94
2022-12-11T10:42:36.588Z,3.28
2022-12-11T10:45:07.245Z,3.02
2022-12-11T10:47:35.107Z,2.99
2022-12-11T10:50:03.903Z,3.21
2022-12-11T10:52:40.950Z,3.19
2022-12-11T10:55:21.897Z,2.84
2022-12-11T10:57:58.755Z,3.36
2022-12-11T11:00:38.723Z,3.36
2022-12-11T11:03:19.131Z,3.13
2022-12-11T11:05:49.526Z,3.01
2022-12-11T11:08:25.125Z,3.43
2022-12-11T11:10:58.231Z,3.61
2022-12-11T11:13:31.215Z,3.79
2022-12-11T11:16:01.510Z,3.59
2022-12-11T11:18:29.971Z,3.19
2022-12-11T11:20:57.432Z,3.56
2022-12-11T11:23:25.461Z,3.56
2022-12-11T11:25:57.547Z,3.39
2022-12-11T11:28:27.823Z,3.37
2022-12-11T11:30:58.945Z,3.30
2022-12-11T11:33:26.684Z,3.37
2022-12-11T11:36:17.203Z,3.43
2022-12-11T11:38:49.272Z,3.29
2022-12-11T11:41:30.292Z,3.39
2022-12-11T11:43:59.769Z,3.33
2022-12-11T11:46:37.857Z,3.20
2022-12-11T11:49:13.926Z,3.30
2022-12-11T11:52:04.324Z,3.49
2022-12-11T11:54:35.697Z,3.72
2022-12-11T11:57:13.147Z,3.19
2022-12-11T11:59:44.503Z,3.26
2022-12-11T12:02:17.108Z,3.70
2022-12-11T12:04:45.895Z,3.52
2022-12-11T12:07:31.591Z,3.62
2022-12-11T12:10:04.203Z,3.54
2022-12-11T12:12:53.829Z,3.72
2022-12-11T12:15:30.617Z,3.85
2022-12-11T12:18:08.823Z,3.70
2022-12-11T12:20:48.732Z,3.69
2022-12-11T12:23:44.954Z,3.47
2022-12-11T12:26:31.818Z,3.66
2022-12-11T12:29:27.010Z,3.69
2022-12-11T12:32:22.797Z,3.73
2022-12-11T12:35:00.040Z,3.82
2022-12-11T12:37:48.443Z,3.92
2022-12-11T12:40:21.552Z,3.87
2022-12-11T12:43:02.660Z,4.24
2022-12-11T12:45:42.374Z,3.85
2022-12-11T12:48:10.360Z,4.17
2022-12-11T12:50:41.891Z,4.12
2022-12-11T12:53:14.344Z,3.88
2022-12-11T12:55:42.239Z,3.76
2022-12-11T12:58:26.343Z,3.53
2022-12-11T13:00:54.769Z,3.88
2022-12-11T13:03:30.350Z,4.29
2022-12-11T13:06:03.273Z,3.96
2022-12-11T13:08:50.367Z,4.53
2022-12-11T13:11:19.829Z,4.69
2022-12-11T13:14:00.398Z,4.25
2022-12-11T13:16:39.348Z,4.26
2022-12-11T13:19:28.328Z,4.59
2022-12-11T13:21:57.394Z,4.53
2022-12-11T13:24:27.253Z,4.37
2022-12-11T13:26:54.946Z,4.42
2022-12-11T13:29:31.863Z,3.99
2022-12-11T13:32:01.686Z,4.34
2022-12-11T13:34:33.275Z,4.43
2022-12-11T13:37:01.778Z,4.38
2022-12-11T13:39:31.660Z,3.82
2022-12-11T13:42:02.996Z,3.69
2022-12-11T13:44:34.000Z,3.89
2022-12-11T13:47:02.801Z,4.03
2022-12-11T13:49:35.394Z,3.89
2022-12-11T13:52:04.544Z,3.78
2022-12-11T13:54:33.898Z,4.09
2022-12-11T13:57:06.127Z,3.81
2022-12-11T13:59:36.496Z,3.97
2022-12-11T14:02:13.338Z,4.02
2022-12-11T14:04:41.199Z,3.83
2022-12-11T14:07:09.559Z,3.37
2022-12-11T14:09:43.727Z,3.52
2022-12-11T14:12:30.485Z,3.86
2022-12-11T14:15:00.022Z,3.71
2022-12-11T14:17:33.317Z,3.32
2022-12-11T14:20:02.143Z,3.13
2022-12-11T14:22:30.686Z,3.64
2022-12-11T14:25:02.662Z,3.46
2022-12-11T14:27:31.162Z,3.72
2022-12-11T14:30:10.642Z,3.61
2022-12-11T14:32:43.280Z,3.71
2022-12-11T14:35:21.683Z,3.87
2022-12-11T14:37:49.489Z,3.86
2022-12-11T14:40:19.810Z,4.09
2022-12-11T14:42:54.413Z,3.54
2022-12-11T14:45:37.404Z,3.71
2022-12-11T14:48:13.907Z,3.82
2022-12-11T14:50:48.347Z,3.85
2022-12-11T14:53:19.587Z,3.86
2022-12-11T14:55:48.807Z,3.77
2022-12-11T14:58:23.072Z,3.61
2022-12-11T15:01:05.212Z,3.45
2022-12-11T15:03:38.474Z,3.17
2022-12-11T15:06:28.183Z,3.56
2022-12-11T15:08:55.790Z,3.07
2022-12-11T15:11:24.986Z,3.39
2022-12-11T15:13:55.159Z,3.56
2022-12-11T15:16:24.799Z,3.45
2022-12-11T15:18:53.829Z,3.52
2022-12-11T15:21:37.640Z,3.33
2022-12-11T15:24:07.004Z,3.17
2022-12-11T15:26:38.691Z,3.39
2022-12-11T15:29:25.218Z,2.83
2022-12-11T15:32:19.906Z,3.19
2022-12-11T15:34:58.480Z,3.04
2022-12-11T15:37:32.807Z,3.23
2022-12-11T15:40:01.691Z,3.38
2022-12-11T15:42:40.306Z,3.32
2022-12-11T15:45:14.639Z,2.99
2022-12-11T15:47:42.803Z,2.91
2022-12-11T15:50:17.277Z,2.86
2022-12-11T15:52:45.124Z,2.97
2022-12-11T15:55:13.329Z,3.10
2022-12-11T15:57:45.792Z,3.23
2022-12-11T16:00:15.081Z,3.28
2022-12-11T16:02:43.218Z,3.25
2022-12-11T16:05:10.914Z,3.51
2022-12-11T16:07:38.583Z,3.04
2022-12-11T16:10:07.603Z,3.43
2022-12-11T16:12:35.012Z,3.40
2022-12-11T16:15:03.361Z,3.42
2022-12-11T16:17:31.467Z,3.60
2022-12-11T16:19:58.812Z,3.41
2022-12-11T16:22:26.152Z,3.38
2022-12-11T16:24:54.894Z,3.72
2022-12-11T16:27:23.403Z,3.42
2022-12-11T16:29:51.394Z,3.33
2022-12-11T16:32:20.317Z,3.21
2022-12-11T16:34:47.722Z,2.63
2022-12-11T16:37:15.246Z,2.79
2022-12-11T16:39:44.861Z,2.70
2022-12-11T16:42:12.443Z,2.64
2022-12-11T16:44:43.952Z,2.97
2022-12-11T16:47:11.962Z,3.12
2022-12-11T16:49:39.333Z,3.13
2022-12-11T16:52:06.639Z,3.22
2022-12-11T16:54:34.237Z,3.02
2022-12-11T16:57:01.603Z,2.99
2022-12-11T16:59:31.071Z,2.85
2022-12-11T17:02:01.443Z,2.86
2022-12-11T17:04:28.923Z,2.81
2022-12-11T17:06:56.227Z,3.09
2022-12-11T17:09:23.852Z,3.11
2022-12-11T17:11:53.895Z,3.26
2022-12-11T17:14:21.199Z,3.41
2022-12-11T17:16:48.847Z,3.50
2022-12-11T17:19:16.700Z,3.49
2022-12-11T17:21:51.166Z,3.11
2022-12-11T17:24:19.106Z,3.20
2022-12-11T17:26:46.594Z,2.83
2022-12-11T17:29:14.046Z,2.85
2022-12-11T17:31:41.838Z,2.78
2022-12-11T17:34:09.143Z,3.01
2022-12-11T17:36:36.436Z,3.12
2022-12-11T17:39:04.187Z,3.33
2022-12-11T17:41:31.563Z,3.58
2022-12-11T17:43:58.896Z,3.54
2022-12-11T17:46:26.756Z,3.68
2022-12-11T17:48:54.126Z,3.79
2022-12-11T17:51:23.881Z,3.59
2022-12-11T17:53:55.279Z,3.15
2022-12-11T17:56:23.860Z,2.85
2022-12-11T17:58:51.182Z,3.14
2022-12-11T18:01:19.091Z,2.87
2022-12-11T18:03:47.080Z,3.18
2022-12-11T18:06:15.668Z,3.19
2022-12-11T18:08:44.398Z,2.86
2022-12-11T18:11:15.294Z,3.00
2022-12-11T18:13:43.936Z,2.89
2022-12-11T18:16:17.565Z,2.90
2022-12-11T18:18:46.394Z,2.55
2022-12-11T18:21:19.829Z,2.70
2022-12-11T18:23:47.522Z,2.69
2022-12-11T18:26:15.137Z,3.00
2022-12-11T18:28:42.747Z,2.93
2022-12-11T18:31:11.063Z,2.66
2022-12-11T18:33:40.468Z,2.79
2022-12-11T18:36:09.214Z,2.62
2022-12-11T18:38:37.159Z,2.54
2022-12-11T18:41:06.580Z,2.59
2022-12-11T18:43:34.516Z,2.63
2022-12-11T18:46:10.968Z,2.77
2022-12-11T18:48:38.602Z,2.47
2022-12-11T18:51:12.361Z,2.57
2022-12-11T18:53:40.595Z,2.49
2022-12-11T18:56:16.926Z,2.62
2022-12-11T18:58:45.060Z,2.65
2022-12-11T19:01:24.270Z,2.91
2022-12-11T19:03:58.868Z,2.84
2022-12-11T19:06:30.330Z,2.73
2022-12-11T19:08:59.077Z,2.55
2022-12-11T19:11:28.244Z,2.61
2022-12-11T19:13:58.881Z,2.79
2022-12-11T19:16:33.643Z,2.42
2022-12-11T19:19:05.266Z,2.39
2022-12-11T19:21:35.367Z,2.73
2022-12-11T19:24:03.848Z,2.54
2022-12-11T19:26:31.150Z,2.62
2022-12-11T19:29:00.159Z,2.93
2022-12-11T19:31:29.558Z,2.70
2022-12-11T19:33:57.237Z,2.27
2022-12-11T19:36:27.018Z,2.35
2022-12-11T19:39:00.931Z,2.36
2022-12-11T19:41:30.197Z,2.14
2022-12-11T19:43:59.065Z,2.02
2022-12-11T19:46:27.008Z,2.35
2022-12-11T19:48:56.578Z,1.98
2022-12-11T19:51:26.774Z,2.08
2022-12-11T19:53:54.218Z,2.10
2022-12-11T19:56:21.785Z,2.19
2022-12-11T19:58:49.922Z,1.94
2022-12-11T20:01:25.872Z,2.05
2022-12-11T20:03:54.089Z,1.97
2022-12-11T20:06:22.260Z,1.85
2022-12-11T20:08:49.977Z,2.05
2022-12-11T20:11:18.926Z,2.15
2022-12-11T20:13:50.171Z,1.92
2022-12-11T20:16:28.877Z,1.91
2022-12-11T20:19:08.303Z,1.80
2022-12-11T20:21:35.883Z,2.14
2022-12-11T20:24:03.283Z,2.21
2022-12-11T20:26:32.466Z,2.33
2022-12-11T20:29:00.142Z,1.95
2022-12-11T20:31:27.606Z,1.84
2022-12-11T20:33:56.263Z,1.89
2022-12-11T20:36:25.355Z,1.52
2022-12-11T20:38:53.218Z,1.77
2022-12-11T20:41:22.352Z,1.79
2022-12-11T20:43:50.716Z,1.84
2022-12-11T20:46:18.618Z,1.63
2022-12-11T20:48:46.735Z,1.77
2022-12-11T20:51:20.871Z,1.63
2022-12-11T20:53:57.463Z,1.74
2022-12-11T20:56:29.919Z,1.82
2022-12-11T20:58:58.680Z,1.72
2022-12-11T21:01:28.260Z,1.74
2022-12-11T21:03:56.372Z,2.13
2022-12-11T21:06:30.694Z,2.31
2022-12-11T21:09:00.374Z,2.37
2022-12-11T21:11:27.840Z,1.89
2022-12-11T21:13:55.280Z,1.80
2022-12-11T21:16:23.425Z,2.13
2022-12-11T21:18:50.975Z,1.91
2022-12-11T21:21:18.354Z,2.01
2022-12-11T21:23:46.059Z,2.20
2022-12-11T21:26:13.910Z,2.11
2022-12-11T21:28:41.400Z,2.12
2022-12-11T21:31:12.539Z,2.23
2022-12-11T21:33:39.970Z,1.83
2022-12-11T21:36:09.177Z,1.90
2022-12-11T21:38:36.954Z,1.36
2022-12-11T21:41:20.118Z,1.29
2022-12-11T21:46:36.297Z,1.60
2022-12-11T21:49:04.246Z,0.96
2022-12-11T21:51:37.109Z,0.71
2022-12-11T21:54:06.633Z,0.82
2022-12-11T21:56:34.102Z,0.89
2022-12-11T21:59:01.881Z,1.03
2022-12-11T22:01:38.452Z,0.89
2022-12-11T22:04:06.508Z,0.98
2022-12-11T22:06:34.452Z,0.64
2022-12-11T22:09:02.387Z,0.84
2022-12-11T22:11:31.491Z,0.83
2022-12-11T22:13:58.952Z,1.07
2022-12-11T22:16:26.429Z,1.08
2022-12-11T22:18:54.171Z,0.78
2022-12-11T22:21:21.463Z,0.89
2022-12-11T22:23:48.812Z,0.55
2022-12-11T22:26:19.404Z,0.84
2022-12-11T22:28:47.113Z,0.91
2022-12-11T22:31:16.682Z,0.84
2022-12-11T22:33:44.724Z,0.92
2022-12-11T22:36:12.347Z,0.86
2022-12-11T22:38:39.907Z,0.64
2022-12-11T22:41:21.903Z,0.30
2022-12-11T22:43:49.816Z,0.41
2022-12-11T22:46:18.904Z,0.22
2022-12-11T22:48:46.596Z,0.40
2022-12-11T22:51:14.439Z,0.61
2022-12-11T22:53:42.067Z,0.89
2022-12-11T22:56:10.879Z,0.64
2022-12-11T22:58:38.816Z,0.67
2022-12-11T23:01:12.864Z,0.31
2022-12-11T23:03:40.433Z,0.87
2022-12-11T23:06:11.165Z,0.93
2022-12-11T23:08:39.493Z,0.78
2022-12-11T23:11:20.082Z,0.89
2022-12-11T23:13:47.692Z,0.50
2022-12-11T23:16:15.190Z,0.31
2022-12-11T23:18:43.121Z,0.81
2022-12-11T23:21:11.765Z,0.31
2022-12-11T23:23:39.583Z,0.35
2022-12-11T23:26:08.528Z,0.31
2022-12-11T23:28:36.233Z,0.25
2022-12-11T23:31:04.061Z,0.57
2022-12-11T23:33:31.447Z,0.27
2022-12-11T23:35:59.269Z,0.23
2022-12-11T23:38:27.240Z,-0.07
2022-12-11T23:40:54.990Z,0.00
2022-12-11T23:43:22.779Z,0.03
2022-12-11T23:45:50.156Z,0.28
2022-12-11T23:48:17.761Z,0.40
2022-12-11T23:50:45.485Z,0.35
2022-12-11T23:53:12.814Z,0.39
2022-12-11T23:55:41.945Z,0.12
2022-12-11T23:58:10.713Z,0.33
